Time;durP1;ratioP1;P1;durP2;ratioP2;P2;SDS_P1;SDS_P2;PMS_P1;PMS_P2;Temp;Humidity;BMP_temperature;BMP_pressure;BME280_temperature;BME280_humidity;BME280_pressure;Samples;Min_cycle;Max_cycle;Signal;HPM_P1;HPM_P2
2022/04/15 00:01:20;;;;;;;18.30;11.45;;;;;;;12.50;62.84;102385.44;5053786;28;20462;-62
2022/04/15 00:03:46;;;;;;;22.25;11.90;;;;;;;12.45;62.33;102381.72;5053866;28;20083;-62
2022/04/15 00:06:12;;;;;;;18.33;12.80;;;;;;;12.38;62.55;102384.19;5053784;28;20028;-62
2022/04/15 00:08:38;;;;;;;17.58;11.27;;;;;;;12.25;62.75;102391.78;5053823;28;20382;-62
2022/04/15 00:11:04;;;;;;;20.98;12.27;;;;;;;12.16;63.17;102386.22;5053589;28;20017;-62
2022/04/15 00:13:32;;;;;;;20.08;12.70;;;;;;;12.03;63.65;102387.63;5053411;28;20461;-62
2022/04/15 00:16:00;;;;;;;18.48;11.82;;;;;;;12.00;63.83;102381.34;5053896;28;20114;-62
2022/04/15 00:18:25;;;;;;;18.35;12.73;;;;;;;11.94;63.64;102379.38;5054116;28;20033;-62
2022/04/15 00:20:52;;;;;;;19.60;12.00;;;;;;;11.90;64.06;102381.88;5054415;28;20029;-61
2022/04/15 00:23:18;;;;;;;18.75;12.18;;;;;;;11.86;64.38;102385.28;5053041;28;20025;-61
2022/04/15 00:25:44;;;;;;;17.33;11.95;;;;;;;11.90;64.14;102380.13;5035668;28;20033;-61
2022/04/15 00:28:10;;;;;;;18.80;11.45;;;;;;;11.98;63.08;102385.66;5053569;28;20036;-61
2022/04/15 00:30:36;;;;;;;16.13;11.32;;;;;;;12.00;63.17;102382.22;5053427;28;20100;-61
2022/04/15 00:33:01;;;;;;;17.55;11.43;;;;;;;12.04;62.89;102399.13;5053318;28;20074;-61
2022/04/15 00:35:27;;;;;;;16.10;11.68;;;;;;;12.04;62.78;102393.81;5053460;28;20392;-61
2022/04/15 00:37:52;;;;;;;17.92;11.95;;;;;;;11.95;63.25;102397.09;5053269;28;20466;-61
2022/04/15 00:40:17;;;;;;;16.77;11.32;;;;;;;11.85;62.96;102399.41;5053196;28;20039;-61
2022/04/15 00:42:43;;;;;;;16.88;12.02;;;;;;;11.74;63.44;102405.25;5053389;28;20032;-61
2022/04/15 00:45:09;;;;;;;19.73;11.70;;;;;;;11.71;63.29;102407.78;5053225;28;20021;-62
2022/04/15 00:47:55;;;;;;;16.63;11.45;;;;;;;11.70;62.76;102413.06;5053232;28;20090;-61
2022/04/15 00:50:40;;;;;;;17.40;11.93;;;;;;;11.61;63.46;102403.06;5053045;28;20385;-61
2022/04/15 00:53:11;;;;;;;21.73;12.40;;;;;;;11.58;63.94;102405.63;5053037;28;20024;-61
2022/04/15 00:55:38;;;;;;;18.27;12.20;;;;;;;11.54;64.14;102406.38;5053265;28;20096;-61
2022/04/15 00:58:05;;;;;;;19.35;11.48;;;;;;;11.52;64.35;102416.03;5053094;28;20112;-61
2022/04/15 01:00:32;;;;;;;19.17;12.05;;;;;;;11.53;65.14;102408.13;5052959;28;20029;-61
2022/04/15 01:03:00;;;;;;;18.80;12.25;;;;;;;11.56;64.80;102412.59;5052828;28;20478;-60
2022/04/15 01:05:27;;;;;;;17.17;11.55;;;;;;;11.62;63.89;102409.25;5052636;28;20021;-61
2022/04/15 01:07:56;;;;;;;19.67;11.00;;;;;;;11.61;63.73;102412.78;5052910;28;20107;-61
2022/04/15 01:10:23;;;;;;;21.40;11.43;;;;;;;11.58;63.73;102410.00;5053057;28;20028;-61
2022/04/15 01:12:54;;;;;;;19.20;12.00;;;;;;;11.52;63.86;102416.91;5052817;28;20049;-61
2022/04/15 01:15:25;;;;;;;16.85;11.43;;;;;;;11.46;63.89;102418.44;5052860;28;20036;-61
2022/04/15 01:17:51;;;;;;;17.75;11.52;;;;;;;11.37;63.83;102404.94;5052851;28;20063;-61
2022/04/15 01:20:17;;;;;;;19.20;12.15;;;;;;;11.37;63.88;102410.22;5052731;28;20032;-61
2022/04/15 01:22:45;;;;;;;15.95;11.48;;;;;;;11.33;64.41;102413.59;5052850;28;20378;-61
2022/04/15 01:25:16;;;;;;;22.67;11.40;;;;;;;11.31;64.33;102415.31;5052727;28;20482;-61
2022/04/15 01:27:44;;;;;;;17.48;11.65;;;;;;;11.17;64.67;102420.13;5052743;28;20029;-61
2022/04/15 01:30:18;;;;;;;16.17;10.38;;;;;;;11.14;64.77;102423.59;5052803;28;20037;-61
2022/04/15 01:32:48;;;;;;;17.55;11.23;;;;;;;10.94;65.21;102425.53;5052465;28;20079;-61
2022/04/15 01:35:15;;;;;;;18.98;12.35;;;;;;;10.91;65.67;102427.19;5056674;28;20021;-61
2022/04/15 01:37:43;;;;;;;18.92;12.15;;;;;;;10.88;65.64;102422.72;5056784;28;20029;-61
2022/04/15 01:40:10;;;;;;;15.70;10.55;;;;;;;10.87;65.28;102423.53;5056539;28;20039;-61
2022/04/15 01:42:37;;;;;;;16.30;11.18;;;;;;;10.93;65.49;102428.16;5056603;28;20064;-61
2022/04/15 01:45:03;;;;;;;22.00;11.20;;;;;;;10.95;65.15;102424.69;5056501;28;20024;-61
2022/04/15 01:47:29;;;;;;;19.17;11.75;;;;;;;10.91;65.25;102429.81;5056431;28;20033;-61
2022/04/15 01:49:54;;;;;;;15.55;11.45;;;;;;;10.85;65.55;102438.47;5056542;28;20032;-61
2022/04/15 01:52:20;;;;;;;17.77;11.20;;;;;;;10.88;65.31;102435.03;5056307;28;20055;-61
2022/04/15 01:54:46;;;;;;;17.10;10.93;;;;;;;10.87;65.11;102426.16;5056322;28;20025;-60
2022/04/15 01:57:13;;;;;;;17.80;11.27;;;;;;;10.88;64.69;102433.28;5056248;28;20485;-61
2022/04/15 01:59:39;;;;;;;16.67;10.88;;;;;;;10.86;65.09;102432.31;5056282;28;20286;-61
2022/04/15 02:02:05;;;;;;;17.45;11.32;;;;;;;10.85;65.20;102438.47;5056121;28;20036;-62
2022/04/15 02:04:30;;;;;;;17.35;11.48;;;;;;;10.84;64.85;102434.03;5056057;28;20417;-61
2022/04/15 02:06:56;;;;;;;17.08;10.63;;;;;;;10.88;64.01;102445.63;5056078;28;20102;-61
2022/04/15 02:09:22;;;;;;;16.20;11.00;;;;;;;10.88;65.08;102442.97;5056025;28;20505;-61
2022/04/15 02:11:48;;;;;;;16.42;10.85;;;;;;;10.82;64.57;102451.56;5055886;28;20109;-62
2022/04/15 02:14:14;;;;;;;14.57;10.15;;;;;;;10.78;65.00;102447.91;5055952;28;20040;-61
2022/04/15 02:16:40;;;;;;;17.55;10.40;;;;;;;10.70;65.15;102445.84;5055917;28;20056;-61
2022/04/15 02:19:06;;;;;;;14.43;10.45;;;;;;;10.63;65.09;102452.66;5055671;28;20033;-61
2022/04/15 02:21:32;;;;;;;14.50;10.68;;;;;;;10.58;65.38;102455.97;5055876;28;20019;-61
2022/04/15 02:23:58;;;;;;;15.27;10.10;;;;;;;10.54;65.04;102462.91;5055857;28;20112;-61
2022/04/15 02:26:24;;;;;;;17.77;11.27;;;;;;;10.50;65.45;102461.88;5056032;28;20526;-60
2022/04/15 02:28:49;;;;;;;17.55;11.27;;;;;;;10.50;65.72;102461.00;5055984;28;20028;-60
2022/04/15 02:31:15;;;;;;;16.75;10.73;;;;;;;10.44;65.40;102455.47;5055853;28;20409;-60
2022/04/15 02:33:40;;;;;;;17.40;11.38;;;;;;;10.40;66.11;102461.47;5055343;28;20020;-61
2022/04/15 02:36:06;;;;;;;18.25;11.85;;;;;;;10.38;65.62;102461.44;5055549;28;20109;-61
2022/04/15 02:38:32;;;;;;;16.58;12.20;;;;;;;10.33;66.30;102467.38;5055732;28;20067;-61
2022/04/15 02:40:58;;;;;;;21.85;12.18;;;;;;;10.28;66.27;102462.84;5055462;28;20090;-61
2022/04/15 02:43:31;;;;;;;16.40;11.60;;;;;;;10.26;66.53;102468.88;5055508;28;20039;-61
2022/04/15 02:46:07;;;;;;;18.50;11.20;;;;;;;10.39;65.71;102468.50;5054431;28;20025;-62
2022/04/15 02:48:33;;;;;;;16.90;11.07;;;;;;;10.55;65.94;102472.63;5055163;28;20063;-61
2022/04/15 02:51:00;;;;;;;19.85;12.48;;;;;;;10.56;65.97;102462.94;5055506;28;20067;-61
2022/04/15 02:53:26;;;;;;;18.35;11.98;;;;;;;10.40;66.19;102465.00;5055206;28;20367;-61
2022/04/15 02:55:52;;;;;;;21.60;12.60;;;;;;;10.36;65.70;102463.09;5055171;28;20067;-61
2022/04/15 02:58:18;;;;;;;19.02;12.18;;;;;;;10.32;65.96;102478.78;5055182;28;20373;-61
2022/04/15 03:00:43;;;;;;;18.30;11.27;;;;;;;10.19;66.47;102469.44;5055078;28;20021;-61
2022/04/15 03:03:08;;;;;;;18.60;11.27;;;;;;;10.16;66.37;102474.63;5054990;28;20037;-61
2022/04/15 03:05:34;;;;;;;16.80;10.75;;;;;;;10.16;66.16;102470.25;5037144;28;20055;-61
2022/04/15 03:07:59;;;;;;;17.90;11.13;;;;;;;10.13;66.50;102466.59;5054996;28;20029;-61
2022/04/15 03:10:25;;;;;;;16.35;10.77;;;;;;;10.12;66.72;102463.03;5054939;28;20032;-61
2022/04/15 03:12:51;;;;;;;16.67;11.52;;;;;;;10.08;67.73;102469.06;5054699;28;20130;-61
2022/04/15 03:15:17;;;;;;;16.42;10.95;;;;;;;10.07;67.17;102476.94;5054802;28;20028;-61
2022/04/15 03:17:43;;;;;;;15.95;11.30;;;;;;;10.01;66.90;102474.91;5036800;28;20440;-61
2022/04/15 03:20:09;;;;;;;14.75;10.57;;;;;;;9.96;66.73;102472.09;5054726;28;20116;-61
2022/04/15 03:22:40;;;;;;;16.58;11.15;;;;;;;9.97;67.34;102471.25;5054910;28;20063;-61
2022/04/15 03:25:07;;;;;;;20.85;11.07;;;;;;;9.98;67.25;102472.19;5054660;28;20500;-61
2022/04/15 03:27:33;;;;;;;16.65;10.35;;;;;;;10.03;66.36;102476.78;5054652;28;20382;-61
2022/04/15 03:29:58;;;;;;;16.30;10.48;;;;;;;10.09;66.11;102476.13;5054513;28;20485;-61
2022/04/15 03:32:24;;;;;;;17.90;11.57;;;;;;;10.03;65.84;102481.19;5054642;28;20141;-61
2022/04/15 03:34:53;;;;;;;15.80;10.82;;;;;;;9.96;66.12;102472.09;5054668;28;20021;-61
2022/04/15 03:37:19;;;;;;;17.05;10.95;;;;;;;10.01;65.99;102477.56;5054489;28;20057;-61
2022/04/15 03:39:44;;;;;;;16.02;11.10;;;;;;;10.00;65.44;102481.94;5054306;28;20494;-61
2022/04/15 03:42:10;;;;;;;17.00;10.73;;;;;;;9.98;65.78;102475.72;5054262;28;20394;-61
2022/04/15 03:44:36;;;;;;;14.82;10.35;;;;;;;9.95;65.73;102487.91;5054347;28;20112;-61
2022/04/15 03:47:06;;;;;;;17.80;10.25;;;;;;;9.86;66.37;102476.97;5054292;28;20482;-61
2022/04/15 03:49:31;;;;;;;18.70;10.55;;;;;;;9.87;66.75;102479.66;5054336;28;20024;-61
2022/04/15 03:51:58;;;;;;;15.32;10.10;;;;;;;9.84;66.79;102481.28;5054081;28;20381;-61
2022/04/15 03:54:23;;;;;;;15.82;10.43;;;;;;;9.72;67.86;102490.53;5054087;28;20096;-61
2022/04/15 03:56:48;;;;;;;15.77;10.02;;;;;;;9.75;68.83;102481.81;5053826;28;20497;-61
2022/04/15 03:59:14;;;;;;;15.73;9.70;;;;;;;9.74;68.88;102491.47;5054105;28;20068;-61
2022/04/15 04:01:40;;;;;;;19.88;11.65;;;;;;;9.75;69.98;102493.25;5053951;28;20025;-61
2022/04/15 04:04:05;;;;;;;19.00;11.43;;;;;;;9.76;70.56;102499.44;5053773;28;20048;-61
2022/04/15 04:06:31;;;;;;;21.98;13.65;;;;;;;9.71;72.15;102507.19;5053850;28;20111;-61
2022/04/15 04:08:56;;;;;;;22.92;15.05;;;;;;;9.74;73.43;102507.31;5053976;28;20382;-61
2022/04/15 04:11:22;;;;;;;28.60;15.50;;;;;;;9.80;74.45;102511.94;5053806;28;20028;-61
2022/04/15 04:13:48;;;;;;;34.53;16.52;;;;;;;9.77;75.38;102509.19;5053459;28;20114;-61
2022/04/15 04:16:13;;;;;;;28.40;16.23;;;;;;;9.82;75.50;102506.72;5053722;28;20021;-61
2022/04/15 04:18:40;;;;;;;41.78;15.98;;;;;;;9.75;75.51;102500.28;5053616;28;20025;-62
2022/04/15 04:21:05;;;;;;;28.88;15.05;;;;;;;9.85;75.92;102510.41;5053559;28;20029;-61
2022/04/15 04:23:31;;;;;;;33.58;15.27;;;;;;;9.85;75.80;102506.84;5053715;28;20032;-61
2022/04/15 04:25:56;;;;;;;39.70;14.82;;;;;;;9.79;75.82;102518.94;5053519;28;20020;-61
2022/04/15 04:28:21;;;;;;;44.45;13.95;;;;;;;9.70;76.68;102518.59;5053517;28;20530;-61
2022/04/15 04:30:47;;;;;;;46.90;13.40;;;;;;;9.67;76.71;102520.19;5053439;28;20025;-61
2022/04/15 04:33:12;;;;;;;23.65;13.15;;;;;;;9.64;76.91;102523.63;5053606;28;20025;-61
2022/04/15 04:35:38;;;;;;;28.35;12.93;;;;;;;9.54;77.27;102524.06;5053325;28;20020;-61
2022/04/15 04:38:05;;;;;;;38.20;13.10;;;;;;;9.39;77.97;102523.44;5053385;28;20025;-61
2022/04/15 04:40:31;;;;;;;42.33;13.13;;;;;;;9.32;78.52;102535.44;5053232;28;20108;-61
2022/04/15 04:42:57;;;;;;;26.40;12.75;;;;;;;9.26;79.13;102541.38;5053365;28;20060;-61
2022/04/15 04:45:23;;;;;;;29.33;11.90;;;;;;;9.22;79.13;102539.44;5053173;28;20102;-61
2022/04/15 04:47:49;;;;;;;19.85;12.00;;;;;;;9.20;78.65;102540.19;5053107;28;20496;-61
2022/04/15 04:50:15;;;;;;;17.95;12.35;;;;;;;9.18;78.90;102548.03;5052850;28;20025;-61
2022/04/15 04:52:40;;;;;;;33.15;13.30;;;;;;;9.15;79.30;102549.63;5052895;28;20037;-61
2022/04/15 04:55:07;;;;;;;24.70;12.73;;;;;;;9.13;80.09;102548.69;5053102;28;20021;-61
2022/04/15 04:57:33;;;;;;;20.92;13.13;;;;;;;9.17;80.34;102540.97;5052767;28;20471;-61
2022/04/15 04:59:58;;;;;;;22.58;13.48;;;;;;;9.24;79.79;102552.66;5052721;28;20541;-61
2022/04/15 05:02:24;;;;;;;26.17;13.10;;;;;;;9.22;79.88;102552.63;5052492;28;20029;-61
2022/04/15 05:04:49;;;;;;;23.75;13.27;;;;;;;9.25;79.90;102560.69;5052241;28;20112;-61
2022/04/15 05:07:15;;;;;;;21.75;12.13;;;;;;;9.23;79.92;102564.97;5052667;28;20615;-61
2022/04/15 05:09:43;;;;;;;18.95;11.13;;;;;;;9.20;80.53;102562.19;5051897;28;20544;-61
2022/04/15 05:12:12;;;;;;;17.38;10.43;;;;;;;9.15;80.48;102569.00;5052190;28;20052;-61
2022/04/15 05:14:38;;;;;;;17.65;11.95;;;;;;;9.18;81.03;102569.13;5052349;28;20108;-61
2022/04/15 05:17:05;;;;;;;23.23;12.27;;;;;;;9.20;81.17;102571.84;5052310;28;20059;-61
2022/04/15 05:19:30;;;;;;;22.35;12.70;;;;;;;9.21;81.16;102573.66;5052251;28;20025;-61
2022/04/15 05:21:55;;;;;;;23.58;12.80;;;;;;;9.28;81.17;102575.72;5052285;28;20386;-61
2022/04/15 05:24:21;;;;;;;27.42;13.20;;;;;;;9.33;81.61;102583.81;5052373;28;20052;-62
2022/04/15 05:26:46;;;;;;;19.08;13.50;;;;;;;9.34;81.13;102583.91;5052241;28;20388;-61
2022/04/15 05:29:11;;;;;;;22.23;13.45;;;;;;;9.33;81.04;102592.63;5052453;28;20025;-62
2022/04/15 05:31:36;;;;;;;28.15;13.82;;;;;;;9.41;81.00;102599.16;5052352;28;20029;-61
2022/04/15 05:34:03;;;;;;;18.65;13.52;;;;;;;9.47;80.77;102602.06;5052222;28;20020;-61
2022/04/15 05:36:28;;;;;;;20.48;13.38;;;;;;;9.49;81.34;102608.31;5034209;28;20025;-64
2022/04/15 05:38:54;;;;;;;19.02;13.60;;;;;;;9.55;80.51;102599.78;5052062;28;20094;-61
2022/04/15 05:41:20;;;;;;;19.48;12.52;;;;;;;9.62;80.47;102603.56;5052094;28;20025;-61
2022/04/15 05:43:46;;;;;;;16.75;12.27;;;;;;;9.65;79.88;102612.53;5052176;28;20052;-61
2022/04/15 05:46:12;;;;;;;16.15;11.35;;;;;;;9.64;79.50;102612.47;5052119;28;20086;-62
2022/04/15 05:48:38;;;;;;;20.20;12.15;;;;;;;9.60;79.60;102613.16;5051979;28;20021;-61
2022/04/15 05:51:03;;;;;;;20.92;12.48;;;;;;;9.67;80.10;102620.50;5052176;28;20056;-61
2022/04/15 05:53:29;;;;;;;18.75;12.32;;;;;;;9.71;79.87;102625.06;5051874;28;20117;-62
2022/04/15 05:56:00;;;;;;;18.15;12.00;;;;;;;9.78;79.59;102629.78;5051968;28;20025;-62
2022/04/15 05:58:26;;;;;;;20.10;12.67;;;;;;;9.79;79.73;102631.56;5052145;28;20359;-61
2022/04/15 06:00:52;;;;;;;18.65;12.88;;;;;;;9.82;79.49;102631.72;5051926;28;20267;-61
2022/04/15 06:03:20;;;;;;;20.48;12.68;;;;;;;9.88;79.72;102637.25;5056051;28;20035;-61
2022/04/15 06:05:50;;;;;;;19.90;12.82;;;;;;;9.89;79.26;102639.06;5054464;28;20044;-62
2022/04/15 06:08:15;;;;;;;21.60;13.27;;;;;;;9.83;79.66;102638.78;5052918;28;20033;-61
2022/04/15 06:10:42;;;;;;;22.45;13.85;;;;;;;9.80;79.63;102636.00;5052548;28;20101;-62
2022/04/15 06:13:14;;;;;;;20.27;12.60;;;;;;;9.81;80.05;102645.75;5051944;28;20081;-62
2022/04/15 06:15:51;;;;;;;20.20;12.68;;;;;;;9.87;80.03;102653.94;5051906;28;20065;-62
2022/04/15 06:18:18;;;;;;;17.10;12.45;;;;;;;9.90;79.81;102662.00;5051906;28;20036;-62
2022/04/15 06:20:44;;;;;;;19.58;12.85;;;;;;;9.90;80.07;102659.34;5053047;28;20078;-62
2022/04/15 06:23:10;;;;;;;16.95;11.85;;;;;;;9.90;80.04;102648.78;5055501;28;20424;-62
2022/04/15 06:25:36;;;;;;;20.83;13.00;;;;;;;9.88;79.96;102660.09;5055244;28;20029;-61
2022/04/15 06:28:03;;;;;;;19.42;11.95;;;;;;;9.93;80.13;102662.09;5055276;28;20029;-62
2022/04/15 06:30:29;;;;;;;16.80;12.07;;;;;;;10.00;79.78;102664.19;5037170;28;20504;-62
2022/04/15 06:32:54;;;;;;;19.10;12.48;;;;;;;10.04;79.95;102660.81;5055043;28;20021;-62
2022/04/15 06:35:20;;;;;;;20.83;11.40;;;;;;;10.09;79.90;102668.94;5054262;28;20029;-62
2022/04/15 06:37:45;;;;;;;18.05;11.50;;;;;;;10.11;79.48;102667.28;5054283;28;20021;-62
2022/04/15 06:40:11;;;;;;;17.58;11.35;;;;;;;10.13;79.61;102675.25;5054202;28;20386;-62
2022/04/15 06:42:37;;;;;;;17.00;11.10;;;;;;;10.15;79.77;102682.44;5054938;28;20055;-62
2022/04/15 06:45:03;;;;;;;18.95;11.40;;;;;;;10.19;79.59;102673.78;5054963;28;20111;-62
2022/04/15 06:47:29;;;;;;;15.75;10.85;;;;;;;10.19;78.87;102679.06;5054901;28;20025;-63
2022/04/15 06:49:54;;;;;;;16.92;11.32;;;;;;;10.15;79.16;102682.44;5054754;28;20032;-63
2022/04/15 06:52:20;;;;;;;16.92;11.30;;;;;;;10.18;79.41;102679.00;5054807;28;20091;-62
2022/04/15 06:54:46;;;;;;;15.75;11.20;;;;;;;10.21;78.98;102685.31;5054787;28;20421;-62
2022/04/15 06:57:12;;;;;;;14.35;10.63;;;;;;;10.24;79.09;102690.75;5054794;28;20124;-62
2022/04/15 06:59:37;;;;;;;20.05;12.68;;;;;;;10.21;79.24;102693.22;5054926;28;20029;-62
2022/04/15 07:02:03;;;;;;;16.73;11.38;;;;;;;10.27;78.78;102688.22;5054628;28;20025;-62
2022/04/15 07:04:29;;;;;;;17.83;11.20;;;;;;;10.31;79.00;102693.66;5054434;28;20025;-63
2022/04/15 07:06:55;;;;;;;17.35;11.52;;;;;;;10.32;79.09;102695.44;5054510;28;20101;-62
2022/04/15 07:09:21;;;;;;;16.50;11.60;;;;;;;10.32;79.16;102700.72;5054422;28;20067;-62
2022/04/15 07:11:47;;;;;;;19.08;12.18;;;;;;;10.32;78.66;102696.38;5054499;28;20017;-62
2022/04/15 07:14:12;;;;;;;22.33;12.15;;;;;;;10.36;78.45;102702.66;5054306;28;20036;-62
2022/04/15 07:16:38;;;;;;;18.40;11.98;;;;;;;10.35;78.44;102698.22;5054384;28;20044;-62
2022/04/15 07:19:04;;;;;;;18.50;11.73;;;;;;;10.36;78.78;102698.28;5054248;28;20044;-62
2022/04/15 07:21:41;;;;;;;17.33;11.25;;;;;;;10.40;78.12;102699.31;5054179;28;20029;-62
2022/04/15 07:24:06;;;;;;;17.20;11.13;;;;;;;10.41;78.31;102698.50;5054191;28;20067;-62
2022/04/15 07:26:32;;;;;;;17.02;10.30;;;;;;;10.46;79.68;102703.13;5054168;28;20028;-62
2022/04/15 07:28:58;;;;;;;15.48;10.48;;;;;;;10.41;78.26;102712.59;5054312;28;20100;-62
2022/04/15 07:31:24;;;;;;;18.05;10.80;;;;;;;10.47;78.20;102709.31;5053594;28;20509;-61
2022/04/15 07:33:50;;;;;;;16.58;10.57;;;;;;;10.51;77.54;102709.50;5053799;28;20025;-61
2022/04/15 07:36:31;;;;;;;18.50;11.18;;;;;;;10.51;78.15;102717.41;5053871;28;20028;-61
2022/04/15 07:38:57;;;;;;;15.77;10.18;;;;;;;10.54;77.70;102716.66;5053953;28;20028;-62
2022/04/15 07:41:23;;;;;;;15.65;9.77;;;;;;;10.60;78.08;102716.00;5053890;28;20029;-62
2022/04/15 07:43:48;;;;;;;16.25;10.18;;;;;;;10.68;78.12;102715.47;5053696;28;20074;-62
2022/04/15 07:46:15;;;;;;;17.92;10.57;;;;;;;10.71;76.92;102712.94;5053780;28;20025;-62
2022/04/15 07:48:40;;;;;;;16.13;10.75;;;;;;;10.76;76.95;102715.78;5053504;28;20031;-62
2022/04/15 07:51:06;;;;;;;16.65;10.40;;;;;;;10.83;76.21;102707.22;5053717;28;20025;-62
2022/04/15 07:53:31;;;;;;;19.83;10.23;;;;;;;10.88;76.19;102720.66;5053608;28;20064;-62
2022/04/15 07:55:57;;;;;;;18.13;9.95;;;;;;;10.95;76.17;102720.03;5053560;28;20035;-62
2022/04/15 07:58:22;;;;;;;14.68;9.60;;;;;;;11.07;74.70;102720.53;5053698;28;20121;-62
2022/04/15 08:00:47;;;;;;;13.27;9.13;;;;;;;11.29;74.91;102727.53;5053447;28;20028;-62
2022/04/15 08:03:13;;;;;;;14.43;8.98;;;;;;;11.43;73.83;102734.22;5053542;28;20059;-62
2022/04/15 08:05:38;;;;;;;11.95;7.70;;;;;;;11.54;71.37;102722.31;5053234;28;20031;-62
2022/04/15 08:08:04;;;;;;;11.48;7.47;;;;;;;11.66;71.09;102724.50;5053353;28;20032;-62
2022/04/15 08:10:29;;;;;;;13.15;7.47;;;;;;;11.76;70.54;102731.94;5053433;28;20078;-62
2022/04/15 08:12:55;;;;;;;12.60;7.03;;;;;;;11.90;70.37;102718.31;5053027;28;20045;-62
2022/04/15 08:15:21;;;;;;;10.63;7.22;;;;;;;11.98;69.74;102724.78;5053220;28;20036;-63
2022/04/15 08:17:47;;;;;;;11.30;7.30;;;;;;;12.03;68.31;102718.81;5053267;28;20068;-62
2022/04/15 08:20:14;;;;;;;10.02;6.40;;;;;;;12.10;67.43;102725.22;5053783;28;20056;-62
2022/04/15 08:22:40;;;;;;;9.60;6.53;;;;;;;12.18;67.70;102726.38;5054124;28;20035;-61
2022/04/15 08:25:06;;;;;;;8.73;6.78;;;;;;;12.36;66.33;102718.16;5053619;28;20112;-61
2022/04/15 08:27:31;;;;;;;10.90;6.95;;;;;;;12.47;65.83;102726.47;5053588;28;20043;-62
2022/04/15 08:29:57;;;;;;;12.23;6.72;;;;;;;12.62;66.47;102719.00;5053189;28;20474;-62
2022/04/15 08:32:22;;;;;;;11.75;6.70;;;;;;;12.83;65.88;102724.09;5053103;28;20085;-62
2022/04/15 08:34:48;;;;;;;11.85;7.00;;;;;;;12.99;64.46;102721.06;5052955;28;20063;-62
2022/04/15 08:37:13;;;;;;;12.13;6.65;;;;;;;13.15;64.22;102718.91;5052876;28;20388;-63
2022/04/15 08:39:42;;;;;;;8.90;6.65;;;;;;;13.33;64.03;102719.47;5052988;28;20032;-62
2022/04/15 08:42:09;;;;;;;10.95;6.35;;;;;;;13.49;62.42;102719.06;5052711;28;20056;-62
2022/04/15 08:44:34;;;;;;;12.38;6.82;;;;;;;13.57;63.38;102727.22;5052388;28;20377;-62
2022/04/15 08:47:01;;;;;;;11.50;6.35;;;;;;;13.69;61.53;102727.59;5052776;28;20021;-62
2022/04/15 08:49:28;;;;;;;10.00;6.72;;;;;;;13.82;61.88;102733.25;5052786;28;20025;-62
2022/04/15 08:51:54;;;;;;;10.32;6.78;;;;;;;13.93;61.38;102735.34;5052599;28;20033;-62
2022/04/15 08:54:21;;;;;;;8.85;6.53;;;;;;;14.01;61.51;102739.13;5034581;28;20029;-62
2022/04/15 08:56:47;;;;;;;9.60;6.50;;;;;;;14.14;60.49;102736.78;5052715;28;20028;-62
2022/04/15 08:59:14;;;;;;;12.68;6.82;;;;;;;14.29;59.88;102740.72;5052361;28;20370;-62
2022/04/15 09:01:40;;;;;;;8.55;6.10;;;;;;;14.45;58.36;102735.81;5052652;28;20068;-62
2022/04/15 09:04:06;;;;;;;11.98;5.95;;;;;;;14.59;57.81;102731.75;5052403;28;20100;-62
2022/04/15 09:06:34;;;;;;;8.82;5.80;;;;;;;14.64;56.95;102742.50;5052395;28;20100;-63
2022/04/15 09:09:09;;;;;;;7.88;5.70;;;;;;;14.65;57.89;102744.31;5052388;28;20044;-62
2022/04/15 09:11:36;;;;;;;7.55;5.63;;;;;;;14.67;56.92;102750.56;5052340;28;20021;-63
2022/04/15 09:14:13;;;;;;;8.80;5.75;;;;;;;14.71;55.92;102757.75;5052162;28;20056;-62
2022/04/15 09:16:45;;;;;;;10.38;5.20;;;;;;;14.64;55.35;102751.38;5034521;28;20429;-62
2022/04/15 09:19:11;;;;;;;6.80;5.63;;;;;;;14.56;55.59;102755.63;5052305;28;20112;-62
2022/04/15 09:21:39;;;;;;;10.02;5.60;;;;;;;14.51;55.26;102757.25;5052307;28;20029;-62
2022/04/15 09:24:07;;;;;;;10.73;5.55;;;;;;;14.58;55.84;102755.66;5052319;28;20029;-62
2022/04/15 09:26:33;;;;;;;9.57;5.53;;;;;;;14.71;55.79;102749.78;5052162;28;20025;-62
2022/04/15 09:28:59;;;;;;;7.25;5.50;;;;;;;14.91;54.45;102752.94;5052436;28;20033;-62
2022/04/15 09:31:25;;;;;;;8.68;5.50;;;;;;;14.90;53.93;102751.09;5052508;28;20373;-60
2022/04/15 09:33:51;;;;;;;7.65;5.40;;;;;;;14.97;54.24;102758.38;5052225;28;20028;-63
2022/04/15 09:36:27;;;;;;;9.32;5.30;;;;;;;15.14;54.80;102764.09;5052110;28;20033;-61
2022/04/15 09:39:02;;;;;;;8.75;5.25;;;;;;;15.20;54.08;102758.88;5052381;28;20027;-61
2022/04/15 09:41:29;;;;;;;9.98;6.13;;;;;;;15.38;53.40;102766.41;5052300;28;20079;-61
2022/04/15 09:43:57;;;;;;;8.32;5.50;;;;;;;15.48;52.55;102774.63;5052225;28;20075;-61
2022/04/15 09:46:22;;;;;;;8.25;5.28;;;;;;;15.84;51.75;102775.38;5052273;28;20048;-61
2022/04/15 09:48:57;;;;;;;7.97;5.63;;;;;;;16.10;51.88;102766.13;5052071;28;20101;-61
2022/04/15 09:51:24;;;;;;;9.45;5.78;;;;;;;16.07;50.80;102768.75;5052298;28;20028;-61
2022/04/15 09:53:52;;;;;;;8.40;5.65;;;;;;;16.11;50.90;102765.25;5052030;28;20037;-61
2022/04/15 09:56:22;;;;;;;11.50;5.75;;;;;;;16.10;50.97;102767.88;5055921;28;20466;-61
2022/04/15 09:58:54;;;;;;;9.35;5.25;;;;;;;15.94;51.60;102766.72;5055627;28;20021;-61
2022/04/15 10:01:22;;;;;;;8.13;5.40;;;;;;;15.93;50.40;102768.47;5055898;28;20032;-61
2022/04/15 10:03:49;;;;;;;9.98;5.35;;;;;;;16.08;51.42;102762.53;5055577;28;20067;-61
2022/04/15 10:06:15;;;;;;;7.43;5.45;;;;;;;16.24;49.81;102759.28;5056029;28;20029;-61
2022/04/15 10:08:42;;;;;;;10.48;5.55;;;;;;;16.34;49.87;102764.78;5055562;28;20032;-61
2022/04/15 10:11:09;;;;;;;8.80;5.32;;;;;;;16.51;49.94;102758.84;5055522;28;20024;-61
2022/04/15 10:13:35;;;;;;;7.32;5.35;;;;;;;16.75;48.61;102765.50;5055160;28;20491;-62
2022/04/15 10:16:01;;;;;;;9.60;5.40;;;;;;;16.94;47.68;102761.34;5055705;28;20032;-61
2022/04/15 10:18:28;;;;;;;6.47;5.10;;;;;;;17.17;47.53;102751.91;5055568;28;20025;-62
2022/04/15 10:20:54;;;;;;;8.85;5.28;;;;;;;17.40;46.94;102749.53;5055287;28;20058;-61
2022/04/15 10:23:21;;;;;;;10.38;5.00;;;;;;;17.66;46.50;102749.84;5055510;28;20033;-62
2022/04/15 10:25:49;;;;;;;8.38;5.32;;;;;;;17.76;45.50;102757.13;5055178;28;20025;-62
2022/04/15 10:28:37;;;;;;;6.45;4.95;;;;;;;17.83;46.19;102751.88;5056023;28;20025;-62
2022/04/15 10:31:15;;;;;;;18.88;6.53;;;;;;;17.73;47.25;102750.84;5055234;28;20021;-62
2022/04/15 10:33:41;;;;;;;21.45;6.78;;;;;;;17.69;45.27;102757.91;5055248;28;20043;-61
2022/04/15 10:36:11;;;;;;;8.75;5.00;;;;;;;17.65;45.51;102749.84;5055356;28;20024;-61
2022/04/15 10:38:36;;;;;;;8.35;5.10;;;;;;;17.64;45.05;102751.59;5055246;28;20035;-61
2022/04/15 10:41:16;;;;;;;7.15;5.07;;;;;;;17.67;46.78;102748.97;5054871;28;20021;-61
2022/04/15 10:43:58;;;;;;;6.95;5.10;;;;;;;17.60;47.08;102738.19;5055041;28;20036;-61
2022/04/15 10:46:30;;;;;;;6.38;5.07;;;;;;;17.62;45.90;102748.03;5055075;28;20044;-61
2022/04/15 10:49:00;;;;;;;6.47;5.00;;;;;;;17.76;45.53;102743.75;5054962;28;20474;-61
2022/04/15 10:51:29;;;;;;;5.60;4.85;;;;;;;18.22;44.28;102735.31;5054621;28;20576;-61
2022/04/15 10:53:55;;;;;;;6.22;5.00;;;;;;;18.60;43.41;102748.16;5054891;28;20033;-61
2022/04/15 10:56:23;;;;;;;6.40;5.00;;;;;;;18.63;44.76;102737.44;5054791;28;20442;-61
2022/04/15 11:02:00;;;;;;;6.28;4.47;;;;;;;19.00;43.83;102738.63;5055062;28;20039;-61
2022/04/15 11:04:26;;;;;;;7.38;5.10;;;;;;;18.85;42.21;102744.81;5054587;28;20033;-62
2022/04/15 11:07:17;;;;;;;8.63;4.65;;;;;;;18.82;43.96;102741.19;5053852;28;20362;-62
2022/04/15 11:09:44;;;;;;;6.70;4.85;;;;;;;19.15;42.68;102740.53;5054503;28;20029;-61
2022/04/15 11:12:11;;;;;;;7.28;4.72;;;;;;;19.45;41.85;102729.03;5054472;28;20525;-62
2022/04/15 11:14:36;;;;;;;6.60;4.70;;;;;;;19.72;41.39;102734.53;5053870;28;20127;-61
2022/04/15 11:17:02;;;;;;;7.50;4.80;;;;;;;20.00;39.89;102730.13;5054493;28;20056;-61